Lexington Weather

Lexington, Massachusetts, USA

39°F
1/23/2020 11:25am 
  • Lexington Conditions: Clear
  • Temperature: 39.0°F / 3.9°CWarmer 6.5°F than last hour.
  • Dew Point: 21.9°FIncreased 0.9°Fsince last hour.
  • Relative Humidity: 50%Decreased 12.0% since last hour.
  • Wind: Calm, 10-min avg: Calm, gust: None
  • Barometer: 30.32 inFalling 0.02  inHg/hr Falling Slowly
  • Visibility: 10 miles
  • Rain Today: 0.00 in
  •   

Nearby Reports - Official Weather Stations - Current Conditions

Data from the National Weather Service

KBED - Bedford, MA


Distance from station: WNW 4mi, 6km

Updated Thu Jan 23, 2020 10:51am EST

Clear

Clear

Wind from SW

Wind:

SW 5 mph, 7 km/h

Temperature: 36°F (2°C)

Wind Chill: 32°F (0°C)

Dew Point: 16°F (-9°C)

Humidity: 44%

Barometer: 30.36 in (1028.1 hPa)

Clouds: Clear

Visibility: 10 miles (16 km)


2020/01/23 15:51 KBED 231551Z 23004KT 10SM CLR 02/M09 A3036 RMK AO2 SLP298 T00171089

KBOS - Boston, MA


Distance from station: ESE 12mi, 20km

Updated Thu Jan 23, 2020 10:54am EST

Partly cloudy

Partly cloudy

Wind from SW

Wind:

SW 10 mph, 17 km/h

Temperature: 43°F (6°C)

Wind Chill: 37°F (3°C)

Dew Point: 18°F (-8°C)

Humidity: 36%

Barometer: 30.37 in (1028.4 hPa)

Clouds: Partly cloudy

Visibility: 10 miles (16 km)

Cloud details: Partly cloudy 25000 ft


2020/01/23 15:54 KBOS 231554Z 22009KT 10SM SCT250 06/M08 A3037 RMK AO2 SLP284 T00561078

KMQE - East Milton, MA


Distance from station: SSE 17mi, 27km

Updated Thu Jan 23, 2020 10:51am EST

Wind from WSW

Wind:

WSW 10 mph, 17 km/h

Temperature: 37°F (3°C)

Wind Chill: 30°F (-1°C)

Dew Point: 16°F (-9°C)

Humidity: 41%

Barometer: 30.34 in (1027.4 hPa)


2020/01/23 15:51 KMQE 231551Z AUTO 24009KT 03/M09 A3034 RMK AO1 SLP292 T00281094

KOWD - Norwood, MA


Distance from station: SSE 18mi, 29km

Updated Thu Jan 23, 2020 10:53am EST

Clear

Clear

Wind from SW

Wind:

SW 7 mph, 11 km/h

Temperature: 43°F (6°C)

Wind Chill: 39°F (4°C)

Dew Point: 16°F (-9°C)

Humidity: 34%

Barometer: 30.38 in (1028.8 hPa)

Clouds: Clear

Visibility: 10 miles (16 km)


2020/01/23 15:53 KOWD 231553Z 22006KT 10SM CLR 06/M09 A3038 RMK AO2 SLP287 T00611089

KBVY - Beverly, MA


Distance from station: ENE 19mi, 31km

Updated Thu Jan 23, 2020 10:53am EST

Clear

Clear

Wind from SW

Wind:

SW 6 mph, 9 km/h

Temperature: 36°F (2°C)

Wind Chill: 31°F (-1°C)

Dew Point: 18°F (-8°C)

Humidity: 48%

Barometer: 30.36 in (1028.1 hPa)

Clouds: Clear

Visibility: 10 miles (16 km)


2020/01/23 15:53 KBVY 231553Z 23005KT 10SM CLR 02/M08 A3036 RMK AO2 SLP277 T00221078

KLWM - Lawrence, MA


Distance from station: NNE 20mi, 32km

Updated Thu Jan 23, 2020 10:54am EST

Clear

Clear

Wind from SW

Wind:

SW 6 mph, 9 km/h

Temperature: 32°F (0°C)

Wind Chill: 26°F (-3°C)

Dew Point: 18°F (-8°C)

Humidity: 55%

Barometer: 30.38 in (1028.8 hPa)

Clouds: Clear

Visibility: 10 miles (16 km)


2020/01/23 15:54 KLWM 231554Z 23005KT 10SM CLR 00/M08 A3038 RMK AO2 SLP289 T00001083

KFIT - Fitchburg, MA


Distance from station: WNW 27mi, 44km

Updated Thu Jan 23, 2020 10:52am EST

Clear

Clear

Wind from calm

Wind:

Calm

Temperature: 37°F (3°C)

Dew Point: 16°F (-9°C)

Humidity: 41%

Barometer: 30.35 in (1027.8 hPa)

Clouds: Clear

Visibility: 10 miles (16 km)


2020/01/23 15:52 KFIT 231552Z AUTO 00000KT 10SM CLR 03/M09 A3035 RMK AO2 SLP284 T00281089

KASH - Nashua/Boire Fld, NH


Distance from station: NNW 28mi, 44km

Updated Thu Jan 23, 2020 10:56am EST

Clear

Clear

Wind from calm

Wind:

Calm

Temperature: 28°F (-2°C)

Dew Point: 18°F (-8°C)

Humidity: 64%

Barometer: 30.36 in (1028.1 hPa)

Clouds: Clear

Visibility: 10 miles (16 km)


2020/01/23 15:56 KASH 231556Z 00000KT 10SM CLR M02/M08 A3036 RMK AO2 SLP291 T10221083

KORH - Worcester, MA


Distance from station: WSW 34mi, 55km

Updated Thu Jan 23, 2020 10:54am EST

Clear

Clear

Wind from SW

Wind:

SW 13 mph, 20 km/h

Temperature: 37°F (3°C)

Wind Chill: 29°F (-2°C)

Dew Point: 14°F (-10°C)

Humidity: 38%

Barometer: 30.33 in (1027.1 hPa)

Clouds: Clear

Visibility: 10 miles (16 km)


2020/01/23 15:54 KORH 231554Z 23011KT 10SM CLR 03/M10 A3033 RMK AO2 SLP283 T00281100

KMHT - Manchester, NH


Distance from station: NNW 35mi, 57km

Updated Thu Jan 23, 2020 10:53am EST

Mostly cloudy

Mostly cloudy

Wind from calm

Wind:

Calm

Temperature: 28°F (-2°C)

Dew Point: 16°F (-9°C)

Humidity: 59%

Barometer: 30.35 in (1027.8 hPa)

Clouds: Mostly cloudy

Visibility: 10 miles (16 km)

Cloud details: Mostly cloudy 25000 ft


2020/01/23 15:53 KMHT 231553Z 00000KT 10SM BKN250 M02/M09 A3035 RMK AO2 SLP296 T10221089

KGHG - Marshfield, MA


Distance from station: SE 38mi, 60km

Updated Thu Jan 23, 2020 10:55am EST

Clear

Clear

Wind from WSW

Wind:

WSW 8 mph, 13 km/h,
Gust: 15 mph, 24 km/h

Temperature: 43°F (6°C)

Wind Chill: 38°F (3°C)

Dew Point: 19°F (-7°C)

Humidity: 39%

Barometer: 30.37 in (1028.4 hPa)

Clouds: Clear

Visibility: 10 miles (16 km)


2020/01/23 15:55 KGHG 231555Z AUTO 24007G13KT 10SM CLR 06/M07 A3037 RMK AO2

KSFZ - Pawtucket, RI


Distance from station: SSW 39mi, 62km

Updated Thu Jan 23, 2020 10:56am EST

Clear

Clear

Wind from WSW

Wind:

WSW 9 mph, 15 km/h

Temperature: 39°F (4°C)

Wind Chill: 33°F (1°C)

Dew Point: 16°F (-9°C)

Humidity: 39%

Barometer: 30.38 in (1028.8 hPa)

Clouds: Clear

Visibility: 10 miles (16 km)


2020/01/23 15:56 KSFZ 231556Z AUTO 24008KT 200V270 10SM CLR 04/M09 A3038 RMK AO2 SLP235 T00441089

KTAN - Taunton, MA


Distance from station: SSE 40mi, 65km

Updated Thu Jan 23, 2020 10:52am EST

Clear

Clear

Wind from SW

Wind:

SW 7 mph, 11 km/h

Temperature: 41°F (5°C)

Wind Chill: 36°F (2°C)

Dew Point: 21°F (-6°C)

Humidity: 45%

Barometer: 30.39 in (1029.1 hPa)

Clouds: Clear

Visibility: 10 miles (16 km)


2020/01/23 15:52 KTAN 231552Z AUTO 23006KT 10SM CLR 05/M06 A3039 RMK AO2 SLP292 T00501061

KPYM - Plymouth, MA


Distance from station: SE 44mi, 72km

Updated Thu Jan 23, 2020 10:52am EST

Clear

Clear

Wind from SW

Wind:

SW 14 mph, 22 km/h

Temperature: 41°F (5°C)

Wind Chill: 33°F (1°C)

Dew Point: 19°F (-7°C)

Humidity: 42%

Barometer: 30.39 in (1029.1 hPa)

Clouds: Clear

Visibility: 10 miles (16 km)


2020/01/23 15:52 KPYM 231552Z AUTO 23012KT 10SM CLR 05/M07 A3039 RMK AO2 SLP293 T00501067

KAFN - Jaffrey, NH


Distance from station: WNW 46mi, 74km

Updated Thu Jan 23, 2020 10:52am EST

Clear

Clear

Wind from S

Wind:

S 8 mph, 13 km/h

Temperature: 32°F (0°C)

Wind Chill: 25°F (-4°C)

Dew Point: 16°F (-9°C)

Humidity: 51%

Barometer: 30.32 in (1026.8 hPa)

Clouds: Clear

Visibility: 10 miles (16 km)


2020/01/23 15:52 KAFN 231552Z AUTO 19007KT 10SM CLR 00/M09 A3032 RMK AO2 SLP290 T00001089

KPSM - Portsmouth/Pease, NH


Distance from station: NNE 48mi, 78km

Updated Thu Jan 23, 2020 10:56am EST

Mostly cloudy

Mostly cloudy

Wind from WSW

Wind:

WSW 6 mph, 9 km/h

Temperature: 36°F (2°C)

Wind Chill: 31°F (-1°C)

Dew Point: 12°F (-11°C)

Humidity: 38%

Barometer: 30.33 in (1027.1 hPa)

Clouds: Mostly cloudy

Visibility: 10 miles (16 km)

Cloud details: Mostly cloudy 25000 ft


2020/01/23 15:56 KPSM 231556Z 24005KT 10SM BKN250 02/M11 A3033 RMK AO2A SLP275 T00221107

KPVD - Providence/Green, RI


Distance from station: S 51mi, 82km

Updated Thu Jan 23, 2020 10:51am EST

Mostly cloudy

Mostly cloudy

Wind from SW

Wind:

SW 10 mph, 17 km/h

Temperature: 41°F (5°C)

Wind Chill: 35°F (2°C)

Dew Point: 21°F (-6°C)

Humidity: 45%

Barometer: 30.41 in (1029.8 hPa)

Clouds: Mostly cloudy

Visibility: 10 miles (16 km)

Cloud details: Mostly cloudy 30000 ft


2020/01/23 15:51 KPVD 231551Z 23009KT 10SM BKN300 05/M06 A3041 RMK AO2 SLP296 T00501061

KCON - Concord, NH


Distance from station: NNW 54mi, 87km

Updated Thu Jan 23, 2020 10:51am EST

Clear

Clear

Wind from calm

Wind:

Calm

Temperature: 25°F (-4°C)

Dew Point: 16°F (-9°C)

Humidity: 69%

Barometer: 30.35 in (1027.8 hPa)

Clouds: Clear

Visibility: 10 miles (16 km)


2020/01/23 15:51 KCON 231551Z AUTO 00000KT 10SM CLR M04/M09 A3035 RMK AO2 SLP284 T10441089

KEWB - New Bedford, MA


Distance from station: SSE 54mi, 87km

Updated Thu Jan 23, 2020 10:53am EST

Clear

Clear

Wind from SW

Wind:

SW 10 mph, 17 km/h

Temperature: 41°F (5°C)

Wind Chill: 35°F (2°C)

Dew Point: 23°F (-5°C)

Humidity: 49%

Barometer: 30.40 in (1029.5 hPa)

Clouds: Clear

Visibility: 10 miles (16 km)


2020/01/23 15:53 KEWB 231553Z 23009KT 10SM CLR 05/M05 A3040 RMK AO2 SLP294 T00501050

KCEF - Chicopee/Westover, Massachusetts, USA


Distance from station: WSW 67mi, 108km

Updated Thu Jan 23, 2020 10:56am EST

Mostly cloudy

Mostly cloudy

Wind from calm

Wind:

Calm

Temperature: 25°F (-4°C)

Dew Point: 16°F (-9°C)

Humidity: 69%

Barometer: 30.38 in (1028.8 hPa)

Clouds: Mostly cloudy

Visibility: 10 miles (16 km)

Cloud details: Mostly cloudy 25000 ft


2020/01/23 15:56 KCEF 231556Z 00000KT 10SM BKN250 M04/M09 A3038 RMK AO2A SLP298 T10411088

KMWN - Mount Washington, NH


Distance from station: N 126mi, 203km

Updated Thu Jan 23, 2020 10:52am EST

Mostly cloudy

Mostly cloudy

Wind from W

Wind:

W 32 mph, 52 km/h

Temperature: 25°F (-4°C)

Wind Chill: 8°F (-13°C)

Dew Point: 5°F (-15°C)

Humidity: 42%

Clouds: Mostly cloudy

Visibility: 90 miles (144 km)

Cloud details: Few Clouds 16000 ft
Mostly cloudy 18000 ft


2020/01/23 15:52 KMWN 231552Z 28028KT 90SM FEW160 BKN180 M04/M15 RMK